Terminal Aerodrome Forecast
Issued by NWS

Home | Current Version | Previous Version | Text Only | Print | Product List | Glossary On
Versions: 1 2 3 4 5 6 7 8 9 10 11 12 13 14 15 16 17 18 19 20 21 22 23 24 25 26 27 28 29
000
FTUS44 KHGX 250520
TAFSGR
TAF
KSGR 250520Z 2506/2606 VRB05KT P6SM VCSH SCT020
     FM251000 VRB03KT P6SM BKN012 BKN025
      TEMPO 2511/2513 3SM BR SCT007
     FM251400 05005KT P6SM VCSH BKN025
     FM251600 06008KT P6SM VCTS BKN040CB
     FM252200 07007KT P6SM BKN050 BKN120=

USA.gov is the U.S. government's official web portal to all federal, state and local government web resources and services.